Time,TemperatureF,DewpointF,PressureIn,WindDirection,WindDirectionDegrees,WindSpeedMPH,WindSpeedGustMPH,Humidity,HourlyPrecipIn,Conditions,Clouds,dailyrainin,SoftwareType,DateUTC
2013-02-27 00:03:00,37.8,37.0,30.17,SSE,166,8.0,13.0,96,0.04,,,0.00,weatherlink.com 1.10,2013-02-27 08:03:00,
2013-02-27 00:18:00,37.6,37.0,30.17,ESE,121,4.0,14.0,97,0.06,,,0.02,weatherlink.com 1.10,2013-02-27 08:18:00,
2013-02-27 00:34:00,37.4,37.0,30.17,ESE,105,5.0,10.0,97,0.07,,,0.03,weatherlink.com 1.10,2013-02-27 08:34:00,
2013-02-27 00:49:00,37.2,37.0,30.17,ESE,102,7.0,9.0,97,0.05,,,0.03,weatherlink.com 1.10,2013-02-27 08:49:00,
2013-02-27 01:04:00,36.9,36.0,30.18,East,96,0.0,7.0,97,0.03,,,0.03,weatherlink.com 1.10,2013-02-27 09:04:00,
2013-02-27 01:19:00,37.1,36.0,30.19,East,81,0.0,8.0,97,0.01,,,0.03,weatherlink.com 1.10,2013-02-27 09:19:00,
2013-02-27 01:34:00,37.1,36.0,30.19,East,90,5.0,7.0,97,0.00,,,0.03,weatherlink.com 1.10,2013-02-27 09:34:00,
2013-02-27 01:49:00,36.9,36.0,30.19,East,94,3.0,7.0,96,0.00,,,0.03,weatherlink.com 1.10,2013-02-27 09:49:00,
2013-02-27 02:04:00,37.1,36.0,30.19,East,92,8.0,10.0,97,0.00,,,0.03,weatherlink.com 1.10,2013-02-27 10:04:00,
2013-02-27 02:19:00,37.2,37.0,30.19,ENE,71,2.0,8.0,97,0.00,,,0.03,weatherlink.com 1.10,2013-02-27 10:19:00,
2013-02-27 02:34:00,37.4,37.0,30.19,ESE,104,5.0,9.0,97,0.00,,,0.03,weatherlink.com 1.10,2013-02-27 10:34:00,
2013-02-27 02:49:00,37.4,37.0,30.20,East,98,6.0,11.0,97,0.00,,,0.03,weatherlink.com 1.10,2013-02-27 10:49:00,
2013-02-27 03:04:00,37.2,37.0,30.20,ESE,107,3.0,9.0,97,0.00,,,0.03,weatherlink.com 1.10,2013-02-27 11:04:00,
2013-02-27 03:19:00,37.1,36.0,30.20,ESE,105,3.0,10.0,97,0.00,,,0.03,weatherlink.com 1.10,2013-02-27 11:19:00,
2013-02-27 03:34:00,36.9,36.0,30.21,East,98,3.0,8.0,97,0.00,,,0.03,weatherlink.com 1.10,2013-02-27 11:34:00,
2013-02-27 03:49:00,36.8,36.0,30.21,ESE,109,7.0,7.0,97,0.00,,,0.03,weatherlink.com 1.10,2013-02-27 11:49:00,
2013-02-27 04:04:00,36.9,36.0,30.21,ESE,102,4.0,10.0,98,0.00,,,0.03,weatherlink.com 1.10,2013-02-27 12:04:00,
2013-02-27 04:19:00,36.8,36.0,30.23,East,98,6.0,8.0,97,0.00,,,0.03,weatherlink.com 1.10,2013-02-27 12:19:00,
2013-02-27 04:34:00,36.8,36.0,30.23,East,98,5.0,10.0,97,0.00,,,0.03,weatherlink.com 1.10,2013-02-27 12:34:00,
2013-02-27 04:49:00,36.9,36.0,30.24,ESE,103,4.0,9.0,97,0.00,,,0.03,weatherlink.com 1.10,2013-02-27 12:49:00,
2013-02-27 05:04:00,37.1,37.0,30.25,ESE,103,3.0,9.0,98,0.00,,,0.03,weatherlink.com 1.10,2013-02-27 13:04:00,
2013-02-27 05:19:00,37.1,37.0,30.25,East,95,6.0,11.0,98,0.00,,,0.03,weatherlink.com 1.10,2013-02-27 13:19:00,
2013-02-27 05:34:00,37.2,37.0,30.26,East,96,5.0,8.0,98,0.00,,,0.03,weatherlink.com 1.10,2013-02-27 13:34:00,
2013-02-27 05:49:00,37.3,37.0,30.26,East,94,3.0,7.0,98,0.00,,,0.03,weatherlink.com 1.10,2013-02-27 13:49:00,
2013-02-27 06:04:00,37.3,37.0,30.27,ESE,103,4.0,8.0,98,0.00,,,0.03,weatherlink.com 1.10,2013-02-27 14:04:00,
2013-02-27 06:19:00,37.3,37.0,30.27,East,100,2.0,7.0,97,0.00,,,0.03,weatherlink.com 1.10,2013-02-27 14:19:00,
2013-02-27 06:34:00,37.4,37.0,30.27,East,100,6.0,9.0,97,0.00,,,0.03,weatherlink.com 1.10,2013-02-27 14:34:00,
2013-02-27 06:49:00,37.4,37.0,30.27,ESE,103,4.0,9.0,97,0.00,,,0.03,weatherlink.com 1.10,2013-02-27 14:49:00,
2013-02-27 07:04:00,37.4,37.0,30.27,ESE,103,2.0,7.0,97,0.00,,,0.03,weatherlink.com 1.10,2013-02-27 15:04:00,
2013-02-27 07:19:00,37.5,37.0,30.27,East,100,6.0,8.0,98,0.00,,,0.03,weatherlink.com 1.10,2013-02-27 15:19:00,
2013-02-27 07:34:00,37.6,37.0,30.27,ESE,102,3.0,8.0,98,0.00,,,0.03,weatherlink.com 1.10,2013-02-27 15:34:00,
2013-02-27 07:49:00,37.7,37.0,30.27,ESE,105,4.0,9.0,98,0.00,,,0.03,weatherlink.com 1.10,2013-02-27 15:49:00,
2013-02-27 08:04:00,37.8,37.0,30.28,ESE,105,2.0,8.0,98,0.00,,,0.03,weatherlink.com 1.10,2013-02-27 16:04:00,
2013-02-27 08:19:00,37.8,37.0,30.28,ESE,106,9.0,9.0,98,0.00,,,0.03,weatherlink.com 1.10,2013-02-27 16:19:00,
2013-02-27 08:34:00,37.7,37.0,30.27,ESE,111,5.0,11.0,98,0.00,,,0.03,weatherlink.com 1.10,2013-02-27 16:34:00,
2013-02-27 08:49:00,37.9,37.0,30.27,ESE,119,8.0,9.0,98,0.00,,,0.03,weatherlink.com 1.10,2013-02-27 16:49:00,
2013-02-27 09:04:00,38.1,38.0,30.27,ESE,109,5.0,10.0,98,0.00,,,0.03,weatherlink.com 1.10,2013-02-27 17:04:00,
2013-02-27 09:19:00,38.6,38.0,30.27,ESE,106,2.0,9.0,98,0.00,,,0.03,weatherlink.com 1.10,2013-02-27 17:19:00,
2013-02-27 09:34:00,38.9,38.0,30.27,ESE,113,0.0,10.0,97,0.00,,,0.03,weatherlink.com 1.10,2013-02-27 17:34:00,
2013-02-27 09:49:00,39.3,38.0,30.27,ESE,115,2.0,10.0,96,0.00,,,0.03,weatherlink.com 1.10,2013-02-27 17:49:00,
2013-02-27 10:04:00,40.3,40.0,30.27,SE,134,3.0,7.0,97,0.00,,,0.03,weatherlink.com 1.10,2013-02-27 18:04:00,
2013-02-27 10:19:00,40.4,39.0,30.27,East,96,2.0,8.0,93,0.00,,,0.03,weatherlink.com 1.10,2013-02-27 18:19:00,
2013-02-27 10:34:00,41.0,39.0,30.28,SSE,167,2.0,9.0,92,0.00,,,0.03,weatherlink.com 1.10,2013-02-27 18:34:00,
2013-02-27 10:50:00,41.3,39.0,30.29,SSE,166,3.0,9.0,91,0.00,,,0.03,weatherlink.com 1.10,2013-02-27 18:50:00,
2013-02-27 11:05:00,42.9,41.0,30.29,SSE,166,6.0,9.0,92,0.00,,,0.03,weatherlink.com 1.10,2013-02-27 19:05:00,
2013-02-27 11:20:00,42.8,40.0,30.29,SSE,168,7.0,11.0,89,0.00,,,0.03,weatherlink.com 1.10,2013-02-27 19:20:00,
2013-02-27 11:35:00,43.1,40.0,30.29,SSE,166,6.0,9.0,90,0.00,,,0.03,weatherlink.com 1.10,2013-02-27 19:35:00,
2013-02-27 11:50:00,42.4,40.0,30.29,South,179,5.0,9.0,90,0.00,,,0.03,weatherlink.com 1.10,2013-02-27 19:50:00,
2013-02-27 12:05:00,42.4,39.0,30.30,South,178,7.0,11.0,87,0.00,,,0.03,weatherlink.com 1.10,2013-02-27 20:05:00,
2013-02-27 12:20:00,43.4,40.0,30.29,SSE,159,7.0,11.0,88,0.00,,,0.03,weatherlink.com 1.10,2013-02-27 20:20:00,
2013-02-27 12:35:00,44.1,39.0,30.27,SSE,154,5.0,9.0,82,0.00,,,0.03,weatherlink.com 1.10,2013-02-27 20:35:00,
2013-02-27 12:50:00,43.2,38.0,30.28,SE,132,1.0,9.0,82,0.00,,,0.03,weatherlink.com 1.10,2013-02-27 20:50:00,
2013-02-27 13:05:00,43.2,38.0,30.27,SSE,149,3.0,11.0,81,0.00,,,0.03,weatherlink.com 1.10,2013-02-27 21:05:00,
2013-02-27 13:20:00,43.2,38.0,30.27,SSE,165,4.0,8.0,83,0.00,,,0.03,weatherlink.com 1.10,2013-02-27 21:20:00,
2013-02-27 13:35:00,42.8,38.0,30.26,SSE,167,3.0,10.0,83,0.00,,,0.03,weatherlink.com 1.10,2013-02-27 21:35:00,
2013-02-27 14:05:00,42.2,38.0,30.27,SE,133,1.0,6.0,84,0.00,,,0.03,weatherlink.com 1.10,2013-02-27 22:05:00,
2013-02-27 14:20:00,42.0,38.0,30.27,SE,133,1.0,5.0,85,0.00,,,0.03,weatherlink.com 1.10,2013-02-27 22:20:00,
2013-02-27 14:35:00,41.7,38.0,30.28,ESE,115,0.0,4.0,85,0.00,,,0.03,weatherlink.com 1.10,2013-02-27 22:35:00,
2013-02-27 14:50:00,41.4,37.0,30.28,ESE,115,2.0,4.0,85,0.00,,,0.03,weatherlink.com 1.10,2013-02-27 22:50:00,
2013-02-27 15:05:00,41.3,37.0,30.27,ESE,115,0.0,1.0,86,0.00,,,0.03,weatherlink.com 1.10,2013-02-27 23:05:00,
2013-02-27 15:20:00,41.5,38.0,30.27,ESE,115,1.0,3.0,87,0.00,,,0.03,weatherlink.com 1.10,2013-02-27 23:20:00,
2013-02-27 15:35:00,41.5,37.0,30.26,ESE,123,2.0,8.0,84,0.00,,,0.03,weatherlink.com 1.10,2013-02-27 23:35:00,
2013-02-27 15:50:00,41.5,36.0,30.26,ESE,103,0.0,8.0,82,0.00,,,0.03,weatherlink.com 1.10,2013-02-27 23:50:00,
2013-02-27 16:05:00,41.6,37.0,30.26,East,97,0.0,7.0,82,0.00,,,0.03,weatherlink.com 1.10,2013-02-28 00:05:00,
2013-02-27 16:20:00,41.5,36.0,30.26,East,96,1.0,6.0,81,0.00,,,0.03,weatherlink.com 1.10,2013-02-28 00:20:00,
2013-02-27 16:35:00,41.5,36.0,30.26,ESE,107,2.0,7.0,82,0.00,,,0.03,weatherlink.com 1.10,2013-02-28 00:35:00,
2013-02-27 16:50:00,41.6,36.0,30.27,ESE,105,0.0,2.0,81,0.00,,,0.03,weatherlink.com 1.10,2013-02-28 00:50:00,
2013-02-27 17:05:00,41.6,37.0,30.27,ESE,105,1.0,3.0,83,0.00,,,0.03,weatherlink.com 1.10,2013-02-28 01:05:00,
2013-02-27 17:20:00,41.5,32.0,30.27,North,5,1.0,5.0,70,0.00,,,0.03,weatherlink.com 1.10,2013-02-28 01:20:00,
2013-02-27 17:35:00,41.1,36.0,30.27,North,5,0.0,3.0,83,0.00,,,0.03,weatherlink.com 1.10,2013-02-28 01:35:00,
2013-02-27 17:50:00,40.5,36.0,30.27,North,5,1.0,3.0,84,0.00,,,0.03,weatherlink.com 1.10,2013-02-28 01:50:00,
2013-02-27 18:06:00,40.0,36.0,30.27,North,5,0.0,3.0,84,0.00,,,0.03,weatherlink.com 1.10,2013-02-28 02:06:00,
2013-02-27 18:20:00,40.0,34.0,30.27,ENE,76,3.0,7.0,79,0.00,,,0.03,weatherlink.com 1.10,2013-02-28 02:20:00,
2013-02-27 18:35:00,39.9,35.0,30.27,ENE,76,2.0,3.0,83,0.00,,,0.03,weatherlink.com 1.10,2013-02-28 02:35:00,
2013-02-27 18:50:00,39.5,35.0,30.27,ENE,76,1.0,4.0,83,0.00,,,0.03,weatherlink.com 1.10,2013-02-28 02:50:00,
2013-02-27 19:05:00,38.8,35.0,30.27,ENE,76,3.0,4.0,85,0.00,,,0.03,weatherlink.com 1.10,2013-02-28 03:05:00,
2013-02-27 19:20:00,38.0,35.0,30.28,ENE,76,2.0,4.0,87,0.00,,,0.03,weatherlink.com 1.10,2013-02-28 03:20:00,
2013-02-27 19:35:00,37.7,34.0,30.28,ENE,76,2.0,3.0,87,0.00,,,0.03,weatherlink.com 1.10,2013-02-28 03:35:00,
2013-02-27 19:50:00,37.6,34.0,30.28,ENE,76,2.0,3.0,88,0.00,,,0.03,weatherlink.com 1.10,2013-02-28 03:50:00,
2013-02-27 20:05:00,37.4,34.0,30.27,ENE,76,2.0,3.0,88,0.00,,,0.03,weatherlink.com 1.10,2013-02-28 04:05:00,
2013-02-27 20:35:00,38.2,35.0,30.26,ENE,68,3.0,4.0,89,0.00,,,0.03,weatherlink.com 1.10,2013-02-28 04:35:00,
2013-02-27 20:50:00,38.4,36.0,30.26,ENE,68,2.0,4.0,89,0.00,,,0.03,weatherlink.com 1.10,2013-02-28 04:50:00,
2013-02-27 21:05:00,38.5,36.0,30.27,ENE,68,0.0,3.0,89,0.00,,,0.03,weatherlink.com 1.10,2013-02-28 05:05:00,
2013-02-27 21:20:00,38.5,36.0,30.27,ENE,67,2.0,3.0,89,0.00,,,0.03,weatherlink.com 1.10,2013-02-28 05:20:00,
2013-02-27 21:35:00,38.6,36.0,30.27,ENE,67,1.0,4.0,89,0.00,,,0.03,weatherlink.com 1.10,2013-02-28 05:35:00,
2013-02-27 21:50:00,38.5,36.0,30.27,ENE,67,1.0,3.0,89,0.00,,,0.03,weatherlink.com 1.10,2013-02-28 05:50:00,
2013-02-27 22:05:00,38.3,36.0,30.27,ENE,67,1.0,2.0,90,0.00,,,0.03,weatherlink.com 1.10,2013-02-28 06:05:00,
2013-02-27 22:20:00,38.1,35.0,30.27,ENE,67,0.0,0.0,89,0.00,,,0.03,weatherlink.com 1.10,2013-02-28 06:20:00,
2013-02-27 22:35:00,38.1,36.0,30.27,ENE,67,0.0,0.0,90,0.00,,,0.03,weatherlink.com 1.10,2013-02-28 06:35:00,
2013-02-27 22:50:00,37.9,35.0,30.27,ENE,67,0.0,3.0,90,0.00,,,0.03,weatherlink.com 1.10,2013-02-28 06:50:00,
2013-02-27 23:05:00,37.9,35.0,30.27,ENE,67,1.0,3.0,89,0.00,,,0.03,weatherlink.com 1.10,2013-02-28 07:05:00,
2013-02-27 23:20:00,37.6,35.0,30.27,ENE,67,2.0,3.0,90,0.00,,,0.03,weatherlink.com 1.10,2013-02-28 07:20:00,
2013-02-27 23:35:00,37.7,35.0,30.27,ENE,67,0.0,2.0,91,0.00,,,0.03,weatherlink.com 1.10,2013-02-28 07:35:00,
2013-02-27 23:50:00,37.8,36.0,30.27,ENE,67,0.0,1.0,91,0.00,,,0.03,weatherlink.com 1.10,2013-02-28 07:50:00,